Proctorville, North Carolina
Current Conditions -  °F | °C
As of 5:54 AM on Thursday 27 Nov 2014 (Local Time) from KLBT Reporting Station
Overcast Overcast  
Wind Chill: 40°   Ceiling: 7500
Heat Index: 43°   Visibility: 10mi
Dew Point: 40°   Wind: 5mph
Humidity: 89%   Direction: 140°SE
Pressure: 30"   Gusts: NA
Location:  34.48°N, 79.04°W
Report Text: KLBT 271054Z AUTO 14004KT 10SM BKN075 OVC100 06/04 A3000 RMK AO2 SLP160 T00610044
Loading
Personal Weather Stations






























Interactive Weather Map New forecast layout! Learn more

10-Day Weather Forecast

Advertisements
Track Severe Weather on mobile